sensor_id;sensor_type;location;lat;lon;timestamp;pressure;altitude;pressure_sealevel;temperature;humidity
75627;BME280;67372;49.404;11.034;2023-02-28T00:02:02;99023.13;;;-2.55;70.21
75627;BME280;67372;49.404;11.034;2023-02-28T00:04:29;99021.56;;;-2.57;69.75
75627;BME280;67372;49.404;11.034;2023-02-28T00:06:55;99020.75;;;-2.58;70.04
75627;BME280;67372;49.404;11.034;2023-02-28T00:09:22;99015.63;;;-2.59;69.97
75627;BME280;67372;49.404;11.034;2023-02-28T00:11:48;99024.41;;;-2.60;70.19
75627;BME280;67372;49.404;11.034;2023-02-28T00:14:14;99020.34;;;-2.64;70.39
75627;BME280;67372;49.404;11.034;2023-02-28T00:16:41;99021.06;;;-2.62;70.13
75627;BME280;67372;49.404;11.034;2023-02-28T00:19:07;99018.44;;;-2.62;70.24
75627;BME280;67372;49.404;11.034;2023-02-28T00:21:33;99025.44;;;-2.63;70.22
75627;BME280;67372;49.404;11.034;2023-02-28T00:24:00;99017.72;;;-2.64;69.87
75627;BME280;67372;49.404;11.034;2023-02-28T00:26:26;99013.56;;;-2.67;70.54
75627;BME280;67372;49.404;11.034;2023-02-28T00:28:52;99013.91;;;-2.71;70.52
75627;BME280;67372;49.404;11.034;2023-02-28T00:31:19;99019.25;;;-2.73;70.75
75627;BME280;67372;49.404;11.034;2023-02-28T00:33:45;99015.91;;;-2.75;70.88
75627;BME280;67372;49.404;11.034;2023-02-28T00:36:12;99016.97;;;-2.78;71.15
75627;BME280;67372;49.404;11.034;2023-02-28T00:38:39;99010.81;;;-2.76;70.84
75627;BME280;67372;49.404;11.034;2023-02-28T00:41:07;99012.81;;;-2.80;71.19
75627;BME280;67372;49.404;11.034;2023-02-28T00:43:34;99014.81;;;-2.84;71.21
75627;BME280;67372;49.404;11.034;2023-02-28T00:46:02;99014.06;;;-2.86;71.18
75627;BME280;67372;49.404;11.034;2023-02-28T00:48:29;99019.28;;;-2.86;71.17
75627;BME280;67372;49.404;11.034;2023-02-28T00:50:55;99011.47;;;-2.86;70.63
75627;BME280;67372;49.404;11.034;2023-02-28T00:53:22;99016.78;;;-2.87;72.19
75627;BME280;67372;49.404;11.034;2023-02-28T00:55:50;99009.91;;;-2.88;71.45
75627;BME280;67372;49.404;11.034;2023-02-28T00:58:16;99006.59;;;-2.90;71.84
75627;BME280;67372;49.404;11.034;2023-02-28T01:00:42;99006.34;;;-2.87;71.35
75627;BME280;67372;49.404;11.034;2023-02-28T01:03:09;99008.97;;;-2.87;71.61
75627;BME280;67372;49.404;11.034;2023-02-28T01:05:35;99006.47;;;-2.89;71.97
75627;BME280;67372;49.404;11.034;2023-02-28T01:08:02;99000.06;;;-2.85;71.34
75627;BME280;67372;49.404;11.034;2023-02-28T01:10:28;98995.69;;;-2.84;71.88
75627;BME280;67372;49.404;11.034;2023-02-28T01:12:54;98992.25;;;-2.85;71.59
75627;BME280;67372;49.404;11.034;2023-02-28T01:15:21;98994.84;;;-2.85;71.84
75627;BME280;67372;49.404;11.034;2023-02-28T01:17:47;98999.25;;;-2.85;72.05
75627;BME280;67372;49.404;11.034;2023-02-28T01:20:14;98995.81;;;-2.86;71.94
75627;BME280;67372;49.404;11.034;2023-02-28T01:22:40;98992.34;;;-2.86;72.03
75627;BME280;67372;49.404;11.034;2023-02-28T01:25:07;98999.25;;;-2.85;72.24
75627;BME280;67372;49.404;11.034;2023-02-28T01:27:33;98989.63;;;-2.85;72.14
75627;BME280;67372;49.404;11.034;2023-02-28T01:30:00;98989.56;;;-2.83;71.88
75627;BME280;67372;49.404;11.034;2023-02-28T01:32:26;98993.81;;;-2.82;72.14
75627;BME280;67372;49.404;11.034;2023-02-28T01:34:52;98993.00;;;-2.83;72.16
75627;BME280;67372;49.404;11.034;2023-02-28T01:37:19;98991.22;;;-2.82;72.19
75627;BME280;67372;49.404;11.034;2023-02-28T01:39:45;98980.88;;;-2.84;71.85
75627;BME280;67372;49.404;11.034;2023-02-28T01:42:12;98977.41;;;-2.84;72.37
75627;BME280;67372;49.404;11.034;2023-02-28T01:47:30;98983.16;;;-2.79;72.12
75627;BME280;67372;49.404;11.034;2023-02-28T01:49:58;98984.72;;;-2.76;71.87
75627;BME280;67372;49.404;11.034;2023-02-28T01:52:26;98983.75;;;-2.75;72.19
75627;BME280;67372;49.404;11.034;2023-02-28T01:54:55;98979.47;;;-2.76;72.05
75627;BME280;67372;49.404;11.034;2023-02-28T01:57:28;98987.31;;;-2.76;72.15
75627;BME280;67372;49.404;11.034;2023-02-28T02:00:01;98980.31;;;-2.76;71.99
75627;BME280;67372;49.404;11.034;2023-02-28T02:02:28;98987.31;;;-2.76;72.10
75627;BME280;67372;49.404;11.034;2023-02-28T02:04:59;98978.88;;;-2.80;72.16
75627;BME280;67372;49.404;11.034;2023-02-28T02:07:30;98977.69;;;-2.76;71.79
75627;BME280;67372;49.404;11.034;2023-02-28T02:10:11;98975.44;;;-2.81;72.45
75627;BME280;67372;49.404;11.034;2023-02-28T02:15:24;98967.59;;;-2.81;72.29
75627;BME280;67372;49.404;11.034;2023-02-28T02:17:57;98971.06;;;-2.80;72.28
75627;BME280;67372;49.404;11.034;2023-02-28T02:29:08;98973.06;;;-2.84;72.71
75627;BME280;67372;49.404;11.034;2023-02-28T02:37:38;98964.09;;;-2.92;73.13
75627;BME280;67372;49.404;11.034;2023-02-28T02:40:25;98958.88;;;-2.92;73.25
75627;BME280;67372;49.404;11.034;2023-02-28T02:43:31;98958.78;;;-2.91;73.11
75627;BME280;67372;49.404;11.034;2023-02-28T02:45:53;98959.72;;;-2.92;73.28
75627;BME280;67372;49.404;11.034;2023-02-28T02:48:25;98957.22;;;-2.93;73.44
75627;BME280;67372;49.404;11.034;2023-02-28T02:50:59;98959.94;;;-2.95;73.25
75627;BME280;67372;49.404;11.034;2023-02-28T02:53:32;98962.56;;;-2.95;73.35
75627;BME280;67372;49.404;11.034;2023-02-28T02:56:01;98968.59;;;-2.94;73.32
75627;BME280;67372;49.404;11.034;2023-02-28T02:58:32;98966.72;;;-2.92;73.38
75627;BME280;67372;49.404;11.034;2023-02-28T03:01:02;98966.81;;;-2.94;73.39
75627;BME280;67372;49.404;11.034;2023-02-28T03:03:31;98962.56;;;-2.95;73.52
75627;BME280;67372;49.404;11.034;2023-02-28T03:06:00;98961.72;;;-2.95;73.54
75627;BME280;67372;49.404;11.034;2023-02-28T03:08:29;98964.22;;;-2.94;73.42
75627;BME280;67372;49.404;11.034;2023-02-28T03:11:01;98966.81;;;-2.94;73.43
75627;BME280;67372;49.404;11.034;2023-02-28T03:16:28;98966.13;;;-2.96;73.77
75627;BME280;67372;49.404;11.034;2023-02-28T03:24:33;98961.72;;;-2.95;73.61
75627;BME280;67372;49.404;11.034;2023-02-28T03:27:07;98970.28;;;-2.93;73.75
75627;BME280;67372;49.404;11.034;2023-02-28T03:29:39;98967.66;;;-2.93;73.65
75627;BME280;67372;49.404;11.034;2023-02-28T03:34:41;98968.50;;;-2.93;73.70
75627;BME280;67372;49.404;11.034;2023-02-28T03:37:16;98971.22;;;-2.94;73.60
75627;BME280;67372;49.404;11.034;2023-02-28T03:39:48;98973.81;;;-2.94;73.87
75627;BME280;67372;49.404;11.034;2023-02-28T03:42:22;98968.59;;;-2.94;73.77
75627;BME280;67372;49.404;11.034;2023-02-28T03:45:23;98975.72;;;-2.96;73.96
75627;BME280;67372;49.404;11.034;2023-02-28T03:48:08;98968.00;;;-2.98;74.05
75627;BME280;67372;49.404;11.034;2023-02-28T03:50:39;98966.22;;;-2.97;74.19
75627;BME280;67372;49.404;11.034;2023-02-28T03:53:11;98968.94;;;-2.99;74.20
75627;BME280;67372;49.404;11.034;2023-02-28T03:55:42;98970.50;;;-2.96;74.04
75627;BME280;67372;49.404;11.034;2023-02-28T04:00:49;98977.72;;;-3.00;73.68
75627;BME280;67372;49.404;11.034;2023-02-28T04:03:19;98970.84;;;-3.01;74.13
75627;BME280;67372;49.404;11.034;2023-02-28T04:05:53;98977.00;;;-3.02;74.30
75627;BME280;67372;49.404;11.034;2023-02-28T04:08:22;98977.00;;;-3.02;74.26
75627;BME280;67372;49.404;11.034;2023-02-28T04:10:53;98976.06;;;-3.01;74.38
75627;BME280;67372;49.404;11.034;2023-02-28T04:13:22;98976.88;;;-3.00;74.29
75627;BME280;67372;49.404;11.034;2023-02-28T04:15:48;98976.78;;;-2.99;74.20
75627;BME280;67372;49.404;11.034;2023-02-28T04:18:14;98984.59;;;-2.99;74.39
75627;BME280;67372;49.404;11.034;2023-02-28T04:20:41;98980.09;;;-2.97;74.40
75627;BME280;67372;49.404;11.034;2023-02-28T04:23:07;98980.00;;;-2.95;74.22
75627;BME280;67372;49.404;11.034;2023-02-28T04:25:34;98977.59;;;-2.98;74.61
75627;BME280;67372;49.404;11.034;2023-02-28T04:28:00;98987.94;;;-2.97;74.12
75627;BME280;67372;49.404;11.034;2023-02-28T04:30:26;98981.06;;;-2.98;74.58
75627;BME280;67372;49.404;11.034;2023-02-28T04:32:53;98979.16;;;-2.96;74.43
75627;BME280;67372;49.404;11.034;2023-02-28T04:35:19;98974.66;;;-2.94;74.07
75627;BME280;67372;49.404;11.034;2023-02-28T04:37:46;98971.94;;;-2.92;74.39
75627;BME280;67372;49.404;11.034;2023-02-28T04:40:12;98982.50;;;-2.94;74.10
75627;BME280;67372;49.404;11.034;2023-02-28T04:42:38;98977.16;;;-2.92;74.48
75627;BME280;67372;49.404;11.034;2023-02-28T04:45:05;98973.59;;;-2.91;74.29
75627;BME280;67372;49.404;11.034;2023-02-28T04:47:32;98980.38;;;-2.89;74.02
75627;BME280;67372;49.404;11.034;2023-02-28T04:49:58;98970.66;;;-2.87;74.21
75627;BME280;67372;49.404;11.034;2023-02-28T04:52:24;98969.69;;;-2.86;73.94
75627;BME280;67372;49.404;11.034;2023-02-28T04:54:51;98976.50;;;-2.83;73.89
75627;BME280;67372;49.404;11.034;2023-02-28T04:57:17;98965.22;;;-2.84;74.14
75627;BME280;67372;49.404;11.034;2023-02-28T04:59:43;98977.34;;;-2.83;74.02
75627;BME280;67372;49.404;11.034;2023-02-28T05:02:10;98977.34;;;-2.83;73.69
75627;BME280;67372;49.404;11.034;2023-02-28T05:04:36;98977.09;;;-2.80;73.83
75627;BME280;67372;49.404;11.034;2023-02-28T05:07:03;98984.59;;;-2.75;73.65
75627;BME280;67372;49.404;11.034;2023-02-28T05:09:29;98984.81;;;-2.78;73.92
75627;BME280;67372;49.404;11.034;2023-02-28T05:11:55;98978.53;;;-2.75;73.43
75627;BME280;67372;49.404;11.034;2023-02-28T05:14:22;98988.16;;;-2.76;73.63
75627;BME280;67372;49.404;11.034;2023-02-28T05:16:48;98993.13;;;-2.73;73.65
75627;BME280;67372;49.404;11.034;2023-02-28T05:19:15;98986.03;;;-2.71;73.13
75627;BME280;67372;49.404;11.034;2023-02-28T05:21:49;98995.03;;;-2.75;73.72
75627;BME280;67372;49.404;11.034;2023-02-28T05:24:16;98987.31;;;-2.76;73.30
75627;BME280;67372;49.404;11.034;2023-02-28T05:26:43;98987.09;;;-2.73;73.46
75627;BME280;67372;49.404;11.034;2023-02-28T05:29:09;98997.41;;;-2.72;73.00
75627;BME280;67372;49.404;11.034;2023-02-28T05:31:36;98997.53;;;-2.73;73.78
75627;BME280;67372;49.404;11.034;2023-02-28T05:34:02;98993.97;;;-2.72;73.30
75627;BME280;67372;49.404;11.034;2023-02-28T05:36:29;98999.31;;;-2.74;73.33
75627;BME280;67372;49.404;11.034;2023-02-28T05:38:55;98997.88;;;-2.78;73.87
75627;BME280;67372;49.404;11.034;2023-02-28T05:41:21;98997.97;;;-2.80;74.07
75627;BME280;67372;49.404;11.034;2023-02-28T05:43:48;98994.53;;;-2.80;73.88
75627;BME280;67372;49.404;11.034;2023-02-28T05:46:15;98998.09;;;-2.81;73.94
75627;BME280;67372;49.404;11.034;2023-02-28T05:48:42;99008.44;;;-2.80;73.75
75627;BME280;67372;49.404;11.034;2023-02-28T05:51:12;98990.38;;;-2.83;73.84
75627;BME280;67372;49.404;11.034;2023-02-28T05:53:38;98997.38;;;-2.83;74.18
75627;BME280;67372;49.404;11.034;2023-02-28T05:56:05;98989.44;;;-2.82;73.90
75627;BME280;67372;49.404;11.034;2023-02-28T05:58:31;99000.00;;;-2.83;74.32
75627;BME280;67372;49.404;11.034;2023-02-28T06:00:58;99002.50;;;-2.82;73.72
75627;BME280;67372;49.404;11.034;2023-02-28T06:03:25;99009.38;;;-2.81;73.94
75627;BME280;67372;49.404;11.034;2023-02-28T06:05:52;99012.09;;;-2.82;74.17
75627;BME280;67372;49.404;11.034;2023-02-28T06:08:19;99004.25;;;-2.82;73.92
75627;BME280;67372;49.404;11.034;2023-02-28T06:10:45;99012.09;;;-2.82;73.85
75627;BME280;67372;49.404;11.034;2023-02-28T06:13:12;98998.94;;;-2.81;73.92
75627;BME280;67372;49.404;11.034;2023-02-28T06:15:38;99013.41;;;-2.76;74.03
75627;BME280;67372;49.404;11.034;2023-02-28T06:18:05;99009.75;;;-2.74;73.66
75627;BME280;67372;49.404;11.034;2023-02-28T06:20:31;99012.13;;;-2.71;73.55
75627;BME280;67372;49.404;11.034;2023-02-28T06:22:58;99009.41;;;-2.69;73.48
75627;BME280;67372;49.404;11.034;2023-02-28T06:25:25;99011.91;;;-2.68;73.44
75627;BME280;67372;49.404;11.034;2023-02-28T06:27:52;99012.63;;;-2.66;73.44
75627;BME280;67372;49.404;11.034;2023-02-28T06:30:19;99014.28;;;-2.65;73.58
75627;BME280;67372;49.404;11.034;2023-02-28T06:32:46;99015.00;;;-2.63;72.97
75627;BME280;67372;49.404;11.034;2023-02-28T06:35:12;99016.47;;;-2.59;72.96
75627;BME280;67372;49.404;11.034;2023-02-28T06:37:38;99019.56;;;-2.54;72.67
75627;BME280;67372;49.404;11.034;2023-02-28T06:40:08;99022.78;;;-2.50;72.81
75627;BME280;67372;49.404;11.034;2023-02-28T06:42:34;99023.97;;;-2.43;72.28
75627;BME280;67372;49.404;11.034;2023-02-28T06:45:00;99023.50;;;-2.37;72.12
75627;BME280;67372;49.404;11.034;2023-02-28T06:47:27;99025.56;;;-2.29;71.74
75627;BME280;67372;49.404;11.034;2023-02-28T06:49:53;99032.59;;;-2.19;71.78
75627;BME280;67372;49.404;11.034;2023-02-28T06:52:20;99030.59;;;-2.04;71.13
75627;BME280;67372;49.404;11.034;2023-02-28T06:54:46;99030.28;;;-1.88;70.06
75627;BME280;67372;49.404;11.034;2023-02-28T06:57:12;99032.19;;;-1.79;69.73
75627;BME280;67372;49.404;11.034;2023-02-28T06:59:38;99036.34;;;-1.76;69.55
75627;BME280;67372;49.404;11.034;2023-02-28T07:02:05;99030.75;;;-1.72;69.33
75627;BME280;67372;49.404;11.034;2023-02-28T07:04:31;99024.47;;;-1.58;68.67
75627;BME280;67372;49.404;11.034;2023-02-28T07:06:57;99029.09;;;-1.50;68.63
75627;BME280;67372;49.404;11.034;2023-02-28T07:09:24;99036.13;;;-1.40;68.03
75627;BME280;67372;49.404;11.034;2023-02-28T07:11:50;99039.53;;;-1.28;67.66
75627;BME280;67372;49.404;11.034;2023-02-28T07:14:17;99033.34;;;-1.27;67.46
75627;BME280;67372;49.404;11.034;2023-02-28T07:16:43;99039.16;;;-1.24;67.51
75627;BME280;67372;49.404;11.034;2023-02-28T07:19:09;99033.69;;;-1.20;67.03
75627;BME280;67372;49.404;11.034;2023-02-28T07:21:36;99042.25;;;-1.07;68.07
75627;BME280;67372;49.404;11.034;2023-02-28T07:24:02;99034.84;;;-1.02;68.96
75627;BME280;67372;49.404;11.034;2023-02-28T07:26:28;99042.47;;;-0.99;66.80
75627;BME280;67372;49.404;11.034;2023-02-28T07:28:55;99041.16;;;-1.05;65.89
75627;BME280;67372;49.404;11.034;2023-02-28T07:31:21;99040.66;;;-0.99;66.20
75627;BME280;67372;49.404;11.034;2023-02-28T07:33:47;99047.56;;;-0.98;66.33
75627;BME280;67372;49.404;11.034;2023-02-28T07:36:16;99044.81;;;-0.96;66.11
75627;BME280;67372;49.404;11.034;2023-02-28T07:38:44;99042.31;;;-0.86;65.56
75627;BME280;67372;49.404;11.034;2023-02-28T07:41:15;99040.88;;;-0.79;65.77
75627;BME280;67372;49.404;11.034;2023-02-28T07:43:42;99045.53;;;-0.83;65.50
75627;BME280;67372;49.404;11.034;2023-02-28T07:46:12;99044.19;;;-0.77;64.69
75627;BME280;67372;49.404;11.034;2023-02-28T07:48:38;99059.31;;;-0.70;65.32
75627;BME280;67372;49.404;11.034;2023-02-28T07:51:05;99054.59;;;-0.55;64.66
75627;BME280;67372;49.404;11.034;2023-02-28T07:53:31;99051.00;;;-0.43;64.70
75627;BME280;67372;49.404;11.034;2023-02-28T07:56:00;99043.81;;;-0.41;64.51
75627;BME280;67372;49.404;11.034;2023-02-28T07:58:27;99054.31;;;-0.41;64.02
75627;BME280;67372;49.404;11.034;2023-02-28T08:00:54;99050.72;;;-0.40;63.86
75627;BME280;67372;49.404;11.034;2023-02-28T08:03:22;99041.97;;;-0.29;63.27
75627;BME280;67372;49.404;11.034;2023-02-28T08:05:49;99050.94;;;-0.11;63.61
75627;BME280;67372;49.404;11.034;2023-02-28T08:08:16;99053.03;;;-0.05;62.78
75627;BME280;67372;49.404;11.034;2023-02-28T08:10:43;99052.03;;;-0.13;62.70
75627;BME280;67372;49.404;11.034;2023-02-28T08:13:09;99057.94;;;0.00;62.99
75627;BME280;67372;49.404;11.034;2023-02-28T08:15:36;99046.09;;;0.06;62.80
75627;BME280;67372;49.404;11.034;2023-02-28T08:18:02;99051.09;;;0.18;62.09
75627;BME280;67372;49.404;11.034;2023-02-28T08:20:29;99049.13;;;0.32;61.56
75627;BME280;67372;49.404;11.034;2023-02-28T08:22:56;99050.72;;;0.23;61.66
75627;BME280;67372;49.404;11.034;2023-02-28T08:25:22;99053.09;;;0.26;61.68
75627;BME280;67372;49.404;11.034;2023-02-28T08:27:51;99049.78;;;0.24;62.00
75627;BME280;67372;49.404;11.034;2023-02-28T08:30:17;99052.78;;;0.19;60.99
75627;BME280;67372;49.404;11.034;2023-02-28T08:32:43;99055.78;;;0.15;61.87
75627;BME280;67372;49.404;11.034;2023-02-28T08:35:10;99058.16;;;0.18;61.35
75627;BME280;67372;49.404;11.034;2023-02-28T08:37:36;99048.50;;;0.18;61.03
75627;BME280;67372;49.404;11.034;2023-02-28T08:40:03;99048.84;;;0.35;61.65
75627;BME280;67372;49.404;11.034;2023-02-28T08:42:30;99046.41;;;0.43;60.84
75627;BME280;67372;49.404;11.034;2023-02-28T08:44:56;99046.06;;;0.57;60.34
75627;BME280;67372;49.404;11.034;2023-02-28T08:47:22;99044.69;;;0.63;59.66
75627;BME280;67372;49.404;11.034;2023-02-28T08:49:49;99054.66;;;0.69;58.96
75627;BME280;67372;49.404;11.034;2023-02-28T08:52:15;99046.22;;;0.65;59.57
75627;BME280;67372;49.404;11.034;2023-02-28T08:54:41;99045.44;;;0.74;59.00
75627;BME280;67372;49.404;11.034;2023-02-28T08:57:07;99053.63;;;0.90;59.11
75627;BME280;67372;49.404;11.034;2023-02-28T08:59:34;99052.00;;;0.99;58.29
75627;BME280;67372;49.404;11.034;2023-02-28T09:02:01;99045.94;;;1.08;57.81
75627;BME280;67372;49.404;11.034;2023-02-28T09:04:27;99052.03;;;1.09;57.38
75627;BME280;67372;49.404;11.034;2023-02-28T09:06:53;99047.63;;;1.19;57.26
75627;BME280;67372;49.404;11.034;2023-02-28T09:09:20;99049.84;;;1.33;57.77
75627;BME280;67372;49.404;11.034;2023-02-28T09:11:46;99051.41;;;1.45;56.56
75627;BME280;67372;49.404;11.034;2023-02-28T09:14:12;99052.38;;;1.44;56.36
75627;BME280;67372;49.404;11.034;2023-02-28T09:16:38;99053.06;;;1.46;55.72
75627;BME280;67372;49.404;11.034;2023-02-28T09:19:05;99050.84;;;1.51;56.46
75627;BME280;67372;49.404;11.034;2023-02-28T09:21:31;99042.38;;;1.58;56.01
75627;BME280;67372;49.404;11.034;2023-02-28T09:23:58;99041.97;;;1.62;55.64
75627;BME280;67372;49.404;11.034;2023-02-28T09:26:26;99059.28;;;1.74;55.44
75627;BME280;67372;49.404;11.034;2023-02-28T09:29:04;99048.88;;;1.63;55.05
75627;BME280;67372;49.404;11.034;2023-02-28T09:31:30;99040.75;;;1.66;55.28
75627;BME280;67372;49.404;11.034;2023-02-28T09:33:57;99046.13;;;1.55;55.24
75627;BME280;67372;49.404;11.034;2023-02-28T09:36:27;99045.44;;;1.72;55.24
75627;BME280;67372;49.404;11.034;2023-02-28T09:39:08;99041.00;;;1.92;55.00
75627;BME280;67372;49.404;11.034;2023-02-28T09:41:39;99044.28;;;2.04;53.88
75627;BME280;67372;49.404;11.034;2023-02-28T09:44:07;99040.53;;;2.16;53.24
75627;BME280;67372;49.404;11.034;2023-02-28T09:46:43;99042.44;;;2.24;52.88
75627;BME280;67372;49.404;11.034;2023-02-28T09:49:14;99054.34;;;2.28;52.28
75627;BME280;67372;49.404;11.034;2023-02-28T09:51:56;99051.72;;;2.37;52.84
75627;BME280;67372;49.404;11.034;2023-02-28T09:54:24;99040.75;;;2.32;51.42
75627;BME280;67372;49.404;11.034;2023-02-28T09:59:41;99047.53;;;2.35;51.60
75627;BME280;67372;49.404;11.034;2023-02-28T10:04:59;99051.22;;;2.52;51.61
75627;BME280;67372;49.404;11.034;2023-02-28T10:10:26;99043.44;;;2.60;50.47
75627;BME280;67372;49.404;11.034;2023-02-28T10:12:55;99045.59;;;2.74;51.10
75627;BME280;67372;49.404;11.034;2023-02-28T10:15:26;99043.34;;;2.79;50.11
75627;BME280;67372;49.404;11.034;2023-02-28T10:17:57;99044.81;;;2.91;49.75
75627;BME280;67372;49.404;11.034;2023-02-28T10:20:37;99042.97;;;3.01;49.35
75627;BME280;67372;49.404;11.034;2023-02-28T10:23:14;99043.63;;;3.03;49.24
75627;BME280;67372;49.404;11.034;2023-02-28T10:25:47;99039.94;;;2.96;48.82
75627;BME280;67372;49.404;11.034;2023-02-28T10:28:17;99039.03;;;3.05;49.96
75627;BME280;67372;49.404;11.034;2023-02-28T10:30:49;99043.78;;;3.02;48.83
75627;BME280;67372;49.404;11.034;2023-02-28T10:33:22;99047.25;;;3.02;49.65
75627;BME280;67372;49.404;11.034;2023-02-28T10:35:50;99046.41;;;3.02;49.58
75627;BME280;67372;49.404;11.034;2023-02-28T10:38:21;99034.66;;;2.96;49.56
75627;BME280;67372;49.404;11.034;2023-02-28T10:40:47;99034.88;;;2.85;49.19
75627;BME280;67372;49.404;11.034;2023-02-28T10:43:19;99042.94;;;2.46;49.22
75627;BME280;67372;49.404;11.034;2023-02-28T10:46:15;99043.78;;;2.47;50.25
75627;BME280;67372;49.404;11.034;2023-02-28T10:49:00;99036.38;;;2.60;49.78
75627;BME280;67372;49.404;11.034;2023-02-28T10:51:34;99038.44;;;2.57;49.45
75627;BME280;67372;49.404;11.034;2023-02-28T10:54:02;99038.44;;;2.57;49.96
75627;BME280;67372;49.404;11.034;2023-02-28T10:56:29;99036.78;;;2.65;49.84
75627;BME280;67372;49.404;11.034;2023-02-28T11:03:59;99035.00;;;3.11;50.25
75627;BME280;67372;49.404;11.034;2023-02-28T11:06:29;99020.44;;;3.34;48.30
75627;BME280;67372;49.404;11.034;2023-02-28T11:08:59;99022.00;;;3.45;47.35
75627;BME280;67372;49.404;11.034;2023-02-28T11:11:28;99027.19;;;3.55;46.78
75627;BME280;67372;49.404;11.034;2023-02-28T11:14:03;99021.22;;;3.53;46.62
75627;BME280;67372;49.404;11.034;2023-02-28T11:16:35;99024.84;;;3.52;46.55
75627;BME280;67372;49.404;11.034;2023-02-28T11:19:17;99035.66;;;3.58;46.24
75627;BME280;67372;49.404;11.034;2023-02-28T11:21:52;99029.53;;;3.58;46.02
75627;BME280;67372;49.404;11.034;2023-02-28T11:24:23;99036.69;;;3.48;46.17
75627;BME280;67372;49.404;11.034;2023-02-28T11:26:51;99029.84;;;3.37;46.78
75627;BME280;67372;49.404;11.034;2023-02-28T11:29:26;99022.91;;;3.36;46.75
75627;BME280;67372;49.404;11.034;2023-02-28T11:32:12;99028.91;;;3.28;47.04
75627;BME280;67372;49.404;11.034;2023-02-28T11:34:40;99027.72;;;3.41;47.40
75627;BME280;67372;49.404;11.034;2023-02-28T11:37:16;99025.84;;;3.51;46.86
75627;BME280;67372;49.404;11.034;2023-02-28T11:39:45;99026.97;;;3.66;46.68
75627;BME280;67372;49.404;11.034;2023-02-28T11:42:33;99020.19;;;3.63;45.99
75627;BME280;67372;49.404;11.034;2023-02-28T11:48:15;99022.91;;;3.97;45.65
75627;BME280;67372;49.404;11.034;2023-02-28T11:53:39;99003.56;;;4.15;46.12
75627;BME280;67372;49.404;11.034;2023-02-28T11:56:41;99016.41;;;4.10;45.72
75627;BME280;67372;49.404;11.034;2023-02-28T12:02:01;99011.13;;;4.10;45.75
75627;BME280;67372;49.404;11.034;2023-02-28T12:04:53;99005.50;;;4.05;45.19
75627;BME280;67372;49.404;11.034;2023-02-28T12:10:25;99015.94;;;4.14;45.64
75627;BME280;67372;49.404;11.034;2023-02-28T12:15:36;99007.00;;;4.33;44.54
75627;BME280;67372;49.404;11.034;2023-02-28T12:21:05;99005.28;;;4.50;44.90
75627;BME280;67372;49.404;11.034;2023-02-28T12:23:50;99004.13;;;4.52;44.38
75627;BME280;67372;49.404;11.034;2023-02-28T12:26:23;99001.06;;;4.39;45.14
75627;BME280;67372;49.404;11.034;2023-02-28T12:29:23;98995.81;;;4.47;44.67
75627;BME280;67372;49.404;11.034;2023-02-28T12:31:54;98992.75;;;4.60;44.91
75627;BME280;67372;49.404;11.034;2023-02-28T12:34:26;99001.84;;;4.57;44.30
75627;BME280;67372;49.404;11.034;2023-02-28T12:36:55;98985.53;;;4.70;45.68
75627;BME280;67372;49.404;11.034;2023-02-28T12:39:28;98981.13;;;4.79;45.05
75627;BME280;67372;49.404;11.034;2023-02-28T12:42:01;98986.56;;;4.85;43.87
75627;BME280;67372;49.404;11.034;2023-02-28T12:44:44;98978.31;;;4.80;42.73
75627;BME280;67372;49.404;11.034;2023-02-28T12:47:14;98979.63;;;4.84;43.67
75627;BME280;67372;49.404;11.034;2023-02-28T12:49:59;98979.63;;;4.84;44.04
75627;BME280;67372;49.404;11.034;2023-02-28T12:52:39;98988.75;;;4.90;43.95
75627;BME280;67372;49.404;11.034;2023-02-28T12:55:20;98977.34;;;4.89;43.43
75627;BME280;67372;49.404;11.034;2023-02-28T13:00:46;98976.16;;;4.84;43.32
75627;BME280;67372;49.404;11.034;2023-02-28T13:03:22;98977.50;;;4.96;42.99
75627;BME280;67372;49.404;11.034;2023-02-28T13:11:38;98975.34;;;4.91;42.58
75627;BME280;67372;49.404;11.034;2023-02-28T13:16:59;98977.09;;;4.67;43.75
75627;BME280;67372;49.404;11.034;2023-02-28T13:19:28;98977.91;;;4.59;44.11
75627;BME280;67372;49.404;11.034;2023-02-28T13:21:56;98984.50;;;4.63;43.78
75627;BME280;67372;49.404;11.034;2023-02-28T13:24:39;98983.84;;;4.61;43.47
75627;BME280;67372;49.404;11.034;2023-02-28T13:29:38;98970.47;;;4.62;44.51
75627;BME280;67372;49.404;11.034;2023-02-28T13:34:36;98981.53;;;4.58;43.74
75627;BME280;67372;49.404;11.034;2023-02-28T13:39:47;98983.53;;;4.64;44.52
75627;BME280;67372;49.404;11.034;2023-02-28T13:47:41;98991.13;;;4.67;44.49
75627;BME280;67372;49.404;11.034;2023-02-28T13:50:37;98978.97;;;4.82;44.46
75627;BME280;67372;49.404;11.034;2023-02-28T13:55:46;98983.94;;;4.85;42.73
75627;BME280;67372;49.404;11.034;2023-02-28T14:01:24;98977.66;;;4.86;44.49
75627;BME280;67372;49.404;11.034;2023-02-28T14:06:48;98973.38;;;4.93;44.21
75627;BME280;67372;49.404;11.034;2023-02-28T14:09:36;98976.19;;;4.92;43.81
75627;BME280;67372;49.404;11.034;2023-02-28T14:17:55;98967.25;;;4.77;44.44
75627;BME280;67372;49.404;11.034;2023-02-28T14:20:25;98975.63;;;4.72;44.20
75627;BME280;67372;49.404;11.034;2023-02-28T14:23:09;98966.25;;;4.78;44.27
75627;BME280;67372;49.404;11.034;2023-02-28T14:25:51;98958.97;;;4.80;45.10
75627;BME280;67372;49.404;11.034;2023-02-28T14:31:28;98962.78;;;4.77;45.09
75627;BME280;67372;49.404;11.034;2023-02-28T14:36:58;98960.66;;;4.89;44.89
75627;BME280;67372;49.404;11.034;2023-02-28T14:39:27;98960.00;;;4.87;45.10
75627;BME280;67372;49.404;11.034;2023-02-28T14:41:54;98966.94;;;4.88;44.95
75627;BME280;67372;49.404;11.034;2023-02-28T14:44:27;98968.41;;;4.82;44.82
75627;BME280;67372;49.404;11.034;2023-02-28T14:46:55;98966.72;;;4.73;44.98
75627;BME280;67372;49.404;11.034;2023-02-28T14:49:42;98964.53;;;4.60;45.03
75627;BME280;67372;49.404;11.034;2023-02-28T14:52:19;98960.91;;;4.61;45.59
75627;BME280;67372;49.404;11.034;2023-02-28T14:54:51;98963.00;;;4.50;46.47
75627;BME280;67372;49.404;11.034;2023-02-28T14:57:30;98967.16;;;4.52;46.75
75627;BME280;67372;49.404;11.034;2023-02-28T15:00:04;98954.59;;;4.54;46.46